Terminal Aerodrome Forecast
Issued by NWS Jackson, MS

Home | Current Version | Previous Version | Text Only | Print | Product List | Glossary On
Versions: 1 2 3 4 5 6 7 8 9 10 11 12 13 14 15 16 17 18 19
000
FTUS44 KJAN 251120
TAFHBG
TAF
KHBG 251120Z 2512/2612 00000KT 6SM BR SCT003
     FM251300 10004KT P6SM SCT015 SCT030
     FM251700 13005KT P6SM VCTS SCT050CB
     FM252300 14003KT P6SM SKC
     FM260800 VRB03KT 4SM BR SCT003=

USA.gov is the U.S. government's official web portal to all federal, state and local government web resources and services.